sensor_id;sensor_type;location;lat;lon;timestamp;temperature;humidity
12504;DHT22;6316;48.118;-1.690;2024-01-27T00:00:06;5.40;99.90
12504;DHT22;6316;48.118;-1.690;2024-01-27T00:02:32;5.20;99.90
12504;DHT22;6316;48.118;-1.690;2024-01-27T00:04:57;5.20;99.90
12504;DHT22;6316;48.118;-1.690;2024-01-27T00:07:23;5.20;99.90
12504;DHT22;6316;48.118;-1.690;2024-01-27T00:09:50;5.10;99.90
12504;DHT22;6316;48.118;-1.690;2024-01-27T00:12:16;5.10;99.90
12504;DHT22;6316;48.118;-1.690;2024-01-27T00:14:41;5.10;99.90
12504;DHT22;6316;48.118;-1.690;2024-01-27T00:17:09;5.20;99.90
12504;DHT22;6316;48.118;-1.690;2024-01-27T00:19:34;5.10;99.90
12504;DHT22;6316;48.118;-1.690;2024-01-27T00:22:00;5.00;99.90
12504;DHT22;6316;48.118;-1.690;2024-01-27T00:24:25;5.00;99.90
12504;DHT22;6316;48.118;-1.690;2024-01-27T00:26:51;5.10;99.90
12504;DHT22;6316;48.118;-1.690;2024-01-27T00:29:17;4.80;99.90
12504;DHT22;6316;48.118;-1.690;2024-01-27T00:31:42;4.90;99.90
12504;DHT22;6316;48.118;-1.690;2024-01-27T00:34:08;4.90;99.90
12504;DHT22;6316;48.118;-1.690;2024-01-27T00:36:34;4.90;99.90
12504;DHT22;6316;48.118;-1.690;2024-01-27T00:39:02;5.00;99.90
12504;DHT22;6316;48.118;-1.690;2024-01-27T00:41:28;4.80;99.90
12504;DHT22;6316;48.118;-1.690;2024-01-27T00:43:54;4.90;99.90
12504;DHT22;6316;48.118;-1.690;2024-01-27T00:46:20;4.80;99.90
12504;DHT22;6316;48.118;-1.690;2024-01-27T00:48:45;4.80;99.90
12504;DHT22;6316;48.118;-1.690;2024-01-27T00:51:11;4.70;99.90
12504;DHT22;6316;48.118;-1.690;2024-01-27T00:53:37;4.70;99.90
12504;DHT22;6316;48.118;-1.690;2024-01-27T00:56:02;4.70;99.90
12504;DHT22;6316;48.118;-1.690;2024-01-27T00:58:28;4.70;99.90
12504;DHT22;6316;48.118;-1.690;2024-01-27T01:00:54;4.70;99.90
12504;DHT22;6316;48.118;-1.690;2024-01-27T01:03:19;4.60;99.90
12504;DHT22;6316;48.118;-1.690;2024-01-27T01:05:45;4.70;99.90
12504;DHT22;6316;48.118;-1.690;2024-01-27T01:08:10;4.50;99.90
12504;DHT22;6316;48.118;-1.690;2024-01-27T01:10:36;4.60;99.90
12504;DHT22;6316;48.118;-1.690;2024-01-27T01:13:01;4.60;99.90
12504;DHT22;6316;48.118;-1.690;2024-01-27T01:15:27;4.50;99.90
12504;DHT22;6316;48.118;-1.690;2024-01-27T01:17:53;4.50;99.90
12504;DHT22;6316;48.118;-1.690;2024-01-27T01:20:18;4.50;99.90
12504;DHT22;6316;48.118;-1.690;2024-01-27T01:22:44;4.50;99.90
12504;DHT22;6316;48.118;-1.690;2024-01-27T01:25:10;4.40;99.90
12504;DHT22;6316;48.118;-1.690;2024-01-27T01:27:35;4.40;99.90
12504;DHT22;6316;48.118;-1.690;2024-01-27T01:30:01;4.40;99.90
12504;DHT22;6316;48.118;-1.690;2024-01-27T01:32:26;4.40;99.90
12504;DHT22;6316;48.118;-1.690;2024-01-27T01:34:52;4.40;99.90
12504;DHT22;6316;48.118;-1.690;2024-01-27T01:37:18;4.40;99.90
12504;DHT22;6316;48.118;-1.690;2024-01-27T01:39:43;4.30;99.90
12504;DHT22;6316;48.118;-1.690;2024-01-27T01:42:09;4.40;99.90
12504;DHT22;6316;48.118;-1.690;2024-01-27T01:44:34;4.40;99.90
12504;DHT22;6316;48.118;-1.690;2024-01-27T01:47:00;4.30;99.90
12504;DHT22;6316;48.118;-1.690;2024-01-27T01:49:26;4.30;99.90
12504;DHT22;6316;48.118;-1.690;2024-01-27T01:51:52;4.30;99.90
12504;DHT22;6316;48.118;-1.690;2024-01-27T01:54:18;4.30;99.90
12504;DHT22;6316;48.118;-1.690;2024-01-27T01:56:44;4.30;99.90
12504;DHT22;6316;48.118;-1.690;2024-01-27T01:59:10;4.30;99.90
12504;DHT22;6316;48.118;-1.690;2024-01-27T02:01:36;4.30;99.90
12504;DHT22;6316;48.118;-1.690;2024-01-27T02:04:01;4.30;99.90
12504;DHT22;6316;48.118;-1.690;2024-01-27T02:06:29;4.30;99.90
12504;DHT22;6316;48.118;-1.690;2024-01-27T02:08:55;4.30;99.90
12504;DHT22;6316;48.118;-1.690;2024-01-27T02:11:20;4.30;99.90
12504;DHT22;6316;48.118;-1.690;2024-01-27T02:13:47;4.30;99.90
12504;DHT22;6316;48.118;-1.690;2024-01-27T02:16:13;4.30;99.90
12504;DHT22;6316;48.118;-1.690;2024-01-27T02:18:38;4.30;99.90
12504;DHT22;6316;48.118;-1.690;2024-01-27T02:21:04;4.20;99.90
12504;DHT22;6316;48.118;-1.690;2024-01-27T02:23:30;4.30;99.90
12504;DHT22;6316;48.118;-1.690;2024-01-27T02:25:55;4.30;99.90
12504;DHT22;6316;48.118;-1.690;2024-01-27T02:28:22;4.20;99.90
12504;DHT22;6316;48.118;-1.690;2024-01-27T02:30:49;4.20;99.90
12504;DHT22;6316;48.118;-1.690;2024-01-27T02:33:14;4.20;99.90
12504;DHT22;6316;48.118;-1.690;2024-01-27T02:35:40;4.30;99.90
12504;DHT22;6316;48.118;-1.690;2024-01-27T02:38:05;4.30;99.90
12504;DHT22;6316;48.118;-1.690;2024-01-27T02:40:31;4.20;99.90
12504;DHT22;6316;48.118;-1.690;2024-01-27T02:42:56;4.30;99.90
12504;DHT22;6316;48.118;-1.690;2024-01-27T02:45:22;4.30;99.90
12504;DHT22;6316;48.118;-1.690;2024-01-27T02:47:48;4.20;99.90
12504;DHT22;6316;48.118;-1.690;2024-01-27T02:50:15;4.20;99.90
12504;DHT22;6316;48.118;-1.690;2024-01-27T02:52:40;4.20;99.90
12504;DHT22;6316;48.118;-1.690;2024-01-27T02:55:06;4.20;99.90
12504;DHT22;6316;48.118;-1.690;2024-01-27T02:57:32;4.20;99.90
12504;DHT22;6316;48.118;-1.690;2024-01-27T02:59:58;4.10;99.90
12504;DHT22;6316;48.118;-1.690;2024-01-27T03:02:23;4.10;99.90
12504;DHT22;6316;48.118;-1.690;2024-01-27T03:04:49;4.10;99.90
12504;DHT22;6316;48.118;-1.690;2024-01-27T03:07:14;4.20;99.90
12504;DHT22;6316;48.118;-1.690;2024-01-27T03:09:40;4.10;99.90
12504;DHT22;6316;48.118;-1.690;2024-01-27T03:12:06;4.10;99.90
12504;DHT22;6316;48.118;-1.690;2024-01-27T03:14:33;4.20;99.90
12504;DHT22;6316;48.118;-1.690;2024-01-27T03:16:58;4.10;99.90
12504;DHT22;6316;48.118;-1.690;2024-01-27T03:19:24;4.10;99.90
12504;DHT22;6316;48.118;-1.690;2024-01-27T03:21:50;4.10;99.90
12504;DHT22;6316;48.118;-1.690;2024-01-27T03:24:15;4.00;99.90
12504;DHT22;6316;48.118;-1.690;2024-01-27T03:26:41;4.00;99.90
12504;DHT22;6316;48.118;-1.690;2024-01-27T03:29:06;4.00;99.90
12504;DHT22;6316;48.118;-1.690;2024-01-27T03:31:33;4.00;99.90
12504;DHT22;6316;48.118;-1.690;2024-01-27T03:34:02;4.10;99.90
12504;DHT22;6316;48.118;-1.690;2024-01-27T03:36:29;4.10;99.90
12504;DHT22;6316;48.118;-1.690;2024-01-27T03:38:56;4.10;99.90
12504;DHT22;6316;48.118;-1.690;2024-01-27T03:41:22;4.10;99.90
12504;DHT22;6316;48.118;-1.690;2024-01-27T03:43:48;4.30;99.90
12504;DHT22;6316;48.118;-1.690;2024-01-27T03:46:14;4.20;99.90
12504;DHT22;6316;48.118;-1.690;2024-01-27T03:48:39;4.30;99.90
12504;DHT22;6316;48.118;-1.690;2024-01-27T03:51:05;4.30;99.90
12504;DHT22;6316;48.118;-1.690;2024-01-27T03:53:31;4.30;99.90
12504;DHT22;6316;48.118;-1.690;2024-01-27T03:55:57;4.30;99.90
12504;DHT22;6316;48.118;-1.690;2024-01-27T03:58:25;4.40;99.90
12504;DHT22;6316;48.118;-1.690;2024-01-27T04:00:51;4.30;99.90
12504;DHT22;6316;48.118;-1.690;2024-01-27T04:03:17;4.30;99.90
12504;DHT22;6316;48.118;-1.690;2024-01-27T04:05:42;4.30;99.90
12504;DHT22;6316;48.118;-1.690;2024-01-27T04:08:08;4.30;99.90
12504;DHT22;6316;48.118;-1.690;2024-01-27T04:10:34;4.40;99.90
12504;DHT22;6316;48.118;-1.690;2024-01-27T04:12:59;4.40;99.90
12504;DHT22;6316;48.118;-1.690;2024-01-27T04:15:25;4.40;99.90
12504;DHT22;6316;48.118;-1.690;2024-01-27T04:17:51;4.40;99.90
12504;DHT22;6316;48.118;-1.690;2024-01-27T04:20:16;4.40;99.90
12504;DHT22;6316;48.118;-1.690;2024-01-27T04:22:42;4.40;99.90
12504;DHT22;6316;48.118;-1.690;2024-01-27T04:25:08;4.40;99.90
12504;DHT22;6316;48.118;-1.690;2024-01-27T04:27:37;4.40;99.90
12504;DHT22;6316;48.118;-1.690;2024-01-27T04:30:06;4.50;99.90
12504;DHT22;6316;48.118;-1.690;2024-01-27T04:32:32;4.50;99.90
12504;DHT22;6316;48.118;-1.690;2024-01-27T04:34:58;4.50;99.90
12504;DHT22;6316;48.118;-1.690;2024-01-27T04:37:23;4.50;99.90
12504;DHT22;6316;48.118;-1.690;2024-01-27T04:39:49;4.50;99.90
12504;DHT22;6316;48.118;-1.690;2024-01-27T04:42:15;4.50;99.90
12504;DHT22;6316;48.118;-1.690;2024-01-27T04:44:41;4.50;99.90
12504;DHT22;6316;48.118;-1.690;2024-01-27T04:47:07;4.60;99.90
12504;DHT22;6316;48.118;-1.690;2024-01-27T04:49:33;4.60;99.90
12504;DHT22;6316;48.118;-1.690;2024-01-27T04:51:59;4.60;99.90
12504;DHT22;6316;48.118;-1.690;2024-01-27T04:54:24;4.60;99.90
12504;DHT22;6316;48.118;-1.690;2024-01-27T04:56:50;4.60;99.90
12504;DHT22;6316;48.118;-1.690;2024-01-27T04:59:16;4.60;99.90
12504;DHT22;6316;48.118;-1.690;2024-01-27T05:01:46;4.60;99.90
12504;DHT22;6316;48.118;-1.690;2024-01-27T05:04:12;4.60;99.90
12504;DHT22;6316;48.118;-1.690;2024-01-27T05:06:38;4.60;99.90
12504;DHT22;6316;48.118;-1.690;2024-01-27T05:09:04;4.50;99.90
12504;DHT22;6316;48.118;-1.690;2024-01-27T05:11:32;4.50;99.90
12504;DHT22;6316;48.118;-1.690;2024-01-27T05:13:59;4.50;99.90
12504;DHT22;6316;48.118;-1.690;2024-01-27T05:16:24;4.50;99.90
12504;DHT22;6316;48.118;-1.690;2024-01-27T05:18:50;4.50;99.90
12504;DHT22;6316;48.118;-1.690;2024-01-27T05:21:16;4.50;99.90
12504;DHT22;6316;48.118;-1.690;2024-01-27T05:23:41;4.50;99.90
12504;DHT22;6316;48.118;-1.690;2024-01-27T05:26:07;4.50;99.90
12504;DHT22;6316;48.118;-1.690;2024-01-27T05:28:33;4.40;99.90
12504;DHT22;6316;48.118;-1.690;2024-01-27T05:30:59;4.30;99.90
12504;DHT22;6316;48.118;-1.690;2024-01-27T05:33:24;4.40;99.90
12504;DHT22;6316;48.118;-1.690;2024-01-27T05:35:50;4.40;99.90
12504;DHT22;6316;48.118;-1.690;2024-01-27T05:38:15;4.50;99.90
12504;DHT22;6316;48.118;-1.690;2024-01-27T05:40:42;4.50;99.90
12504;DHT22;6316;48.118;-1.690;2024-01-27T05:43:07;4.50;99.90
12504;DHT22;6316;48.118;-1.690;2024-01-27T05:45:33;4.60;99.90
12504;DHT22;6316;48.118;-1.690;2024-01-27T05:47:58;4.60;99.90
12504;DHT22;6316;48.118;-1.690;2024-01-27T05:50:24;4.60;99.90
12504;DHT22;6316;48.118;-1.690;2024-01-27T05:52:50;4.60;99.90
12504;DHT22;6316;48.118;-1.690;2024-01-27T05:55:16;4.60;99.90
12504;DHT22;6316;48.118;-1.690;2024-01-27T05:57:42;4.70;99.90
12504;DHT22;6316;48.118;-1.690;2024-01-27T06:00:08;4.70;99.90
12504;DHT22;6316;48.118;-1.690;2024-01-27T06:02:35;4.60;99.90
12504;DHT22;6316;48.118;-1.690;2024-01-27T06:05:01;4.60;99.90
12504;DHT22;6316;48.118;-1.690;2024-01-27T06:07:27;4.70;99.90
12504;DHT22;6316;48.118;-1.690;2024-01-27T06:09:53;4.70;99.90
12504;DHT22;6316;48.118;-1.690;2024-01-27T06:12:19;4.80;99.90
12504;DHT22;6316;48.118;-1.690;2024-01-27T06:14:45;4.60;99.90
12504;DHT22;6316;48.118;-1.690;2024-01-27T06:17:10;4.60;99.90
12504;DHT22;6316;48.118;-1.690;2024-01-27T06:19:37;4.80;99.90
12504;DHT22;6316;48.118;-1.690;2024-01-27T06:22:03;4.60;99.90
12504;DHT22;6316;48.118;-1.690;2024-01-27T06:24:28;4.60;99.90
12504;DHT22;6316;48.118;-1.690;2024-01-27T06:26:54;4.60;99.90
12504;DHT22;6316;48.118;-1.690;2024-01-27T06:29:19;4.60;99.90
12504;DHT22;6316;48.118;-1.690;2024-01-27T06:31:45;4.70;99.90
12504;DHT22;6316;48.118;-1.690;2024-01-27T06:34:11;4.60;99.90
12504;DHT22;6316;48.118;-1.690;2024-01-27T06:36:36;4.50;99.90
12504;DHT22;6316;48.118;-1.690;2024-01-27T06:39:02;4.50;99.90
12504;DHT22;6316;48.118;-1.690;2024-01-27T06:41:28;4.50;99.90
12504;DHT22;6316;48.118;-1.690;2024-01-27T06:43:53;4.50;99.90
12504;DHT22;6316;48.118;-1.690;2024-01-27T06:46:19;4.50;99.90
12504;DHT22;6316;48.118;-1.690;2024-01-27T06:48:45;4.40;99.90
12504;DHT22;6316;48.118;-1.690;2024-01-27T06:51:10;4.40;99.90
12504;DHT22;6316;48.118;-1.690;2024-01-27T06:53:36;4.30;99.90
12504;DHT22;6316;48.118;-1.690;2024-01-27T06:56:01;4.40;99.90
12504;DHT22;6316;48.118;-1.690;2024-01-27T06:58:27;4.40;99.90
12504;DHT22;6316;48.118;-1.690;2024-01-27T07:00:53;4.40;99.90
12504;DHT22;6316;48.118;-1.690;2024-01-27T07:03:19;4.30;99.90
12504;DHT22;6316;48.118;-1.690;2024-01-27T07:05:45;4.40;99.90
12504;DHT22;6316;48.118;-1.690;2024-01-27T07:08:11;4.30;99.90
12504;DHT22;6316;48.118;-1.690;2024-01-27T07:10:36;4.30;99.90
12504;DHT22;6316;48.118;-1.690;2024-01-27T07:13:03;4.30;99.90
12504;DHT22;6316;48.118;-1.690;2024-01-27T07:15:29;4.30;99.90
12504;DHT22;6316;48.118;-1.690;2024-01-27T07:17:54;4.30;99.90
12504;DHT22;6316;48.118;-1.690;2024-01-27T07:20:20;4.30;99.90
12504;DHT22;6316;48.118;-1.690;2024-01-27T07:22:47;4.30;99.90
12504;DHT22;6316;48.118;-1.690;2024-01-27T07:25:13;4.30;99.90
12504;DHT22;6316;48.118;-1.690;2024-01-27T07:27:39;4.30;99.90
12504;DHT22;6316;48.118;-1.690;2024-01-27T07:30:05;4.30;99.90
12504;DHT22;6316;48.118;-1.690;2024-01-27T07:32:31;4.30;99.90
12504;DHT22;6316;48.118;-1.690;2024-01-27T07:34:57;4.30;99.90
12504;DHT22;6316;48.118;-1.690;2024-01-27T07:37:23;4.30;99.90
12504;DHT22;6316;48.118;-1.690;2024-01-27T07:39:48;4.30;99.90
12504;DHT22;6316;48.118;-1.690;2024-01-27T07:42:14;4.30;99.90
12504;DHT22;6316;48.118;-1.690;2024-01-27T07:44:41;4.30;99.90
12504;DHT22;6316;48.118;-1.690;2024-01-27T07:47:07;4.30;99.90
12504;DHT22;6316;48.118;-1.690;2024-01-27T07:49:34;4.30;99.90
12504;DHT22;6316;48.118;-1.690;2024-01-27T07:52:00;4.30;99.90
12504;DHT22;6316;48.118;-1.690;2024-01-27T07:54:26;4.30;99.90
12504;DHT22;6316;48.118;-1.690;2024-01-27T07:56:51;4.30;99.90
12504;DHT22;6316;48.118;-1.690;2024-01-27T07:59:17;4.30;99.90
12504;DHT22;6316;48.118;-1.690;2024-01-27T08:01:43;4.30;99.90
12504;DHT22;6316;48.118;-1.690;2024-01-27T08:04:09;4.30;99.90
12504;DHT22;6316;48.118;-1.690;2024-01-27T08:06:48;4.40;99.90
12504;DHT22;6316;48.118;-1.690;2024-01-27T08:09:15;4.40;99.90
12504;DHT22;6316;48.118;-1.690;2024-01-27T08:11:41;4.40;99.90
12504;DHT22;6316;48.118;-1.690;2024-01-27T08:14:07;4.50;99.90
12504;DHT22;6316;48.118;-1.690;2024-01-27T08:16:32;4.50;99.90
12504;DHT22;6316;48.118;-1.690;2024-01-27T08:18:58;4.60;99.90
12504;DHT22;6316;48.118;-1.690;2024-01-27T08:21:23;4.70;99.90
12504;DHT22;6316;48.118;-1.690;2024-01-27T08:23:49;4.70;99.90
12504;DHT22;6316;48.118;-1.690;2024-01-27T08:26:15;4.70;99.90
12504;DHT22;6316;48.118;-1.690;2024-01-27T08:28:40;4.70;99.90
12504;DHT22;6316;48.118;-1.690;2024-01-27T08:31:06;4.90;99.90
12504;DHT22;6316;48.118;-1.690;2024-01-27T08:33:32;4.90;99.90
12504;DHT22;6316;48.118;-1.690;2024-01-27T08:35:58;5.00;99.90
12504;DHT22;6316;48.118;-1.690;2024-01-27T08:38:23;5.00;99.90
12504;DHT22;6316;48.118;-1.690;2024-01-27T08:40:49;5.00;99.90
12504;DHT22;6316;48.118;-1.690;2024-01-27T08:43:14;5.10;99.90
12504;DHT22;6316;48.118;-1.690;2024-01-27T08:45:40;5.10;99.90
12504;DHT22;6316;48.118;-1.690;2024-01-27T08:48:06;5.10;99.90
12504;DHT22;6316;48.118;-1.690;2024-01-27T08:50:32;5.10;99.90
12504;DHT22;6316;48.118;-1.690;2024-01-27T08:52:58;5.20;99.90
12504;DHT22;6316;48.118;-1.690;2024-01-27T08:55:23;5.20;99.90
12504;DHT22;6316;48.118;-1.690;2024-01-27T08:57:50;5.20;99.90
12504;DHT22;6316;48.118;-1.690;2024-01-27T09:00:16;5.20;99.90
12504;DHT22;6316;48.118;-1.690;2024-01-27T09:02:45;5.20;99.90
12504;DHT22;6316;48.118;-1.690;2024-01-27T09:05:11;5.30;99.90
12504;DHT22;6316;48.118;-1.690;2024-01-27T09:07:37;5.30;99.90
12504;DHT22;6316;48.118;-1.690;2024-01-27T09:10:03;5.30;99.90
12504;DHT22;6316;48.118;-1.690;2024-01-27T09:12:29;5.40;99.90
12504;DHT22;6316;48.118;-1.690;2024-01-27T09:14:54;5.40;99.90
12504;DHT22;6316;48.118;-1.690;2024-01-27T09:17:20;5.50;99.90
12504;DHT22;6316;48.118;-1.690;2024-01-27T09:19:46;5.50;99.90
12504;DHT22;6316;48.118;-1.690;2024-01-27T09:22:12;5.60;99.90
12504;DHT22;6316;48.118;-1.690;2024-01-27T09:24:38;5.60;99.90
12504;DHT22;6316;48.118;-1.690;2024-01-27T09:27:03;5.60;99.90
12504;DHT22;6316;48.118;-1.690;2024-01-27T09:29:29;5.70;99.90
12504;DHT22;6316;48.118;-1.690;2024-01-27T09:31:55;5.80;99.90
12504;DHT22;6316;48.118;-1.690;2024-01-27T09:34:21;5.80;99.90
12504;DHT22;6316;48.118;-1.690;2024-01-27T09:36:47;5.80;99.90
12504;DHT22;6316;48.118;-1.690;2024-01-27T09:39:12;5.80;99.90
12504;DHT22;6316;48.118;-1.690;2024-01-27T09:41:38;5.90;99.90
12504;DHT22;6316;48.118;-1.690;2024-01-27T09:44:04;5.90;99.90
12504;DHT22;6316;48.118;-1.690;2024-01-27T09:46:31;6.00;99.90
12504;DHT22;6316;48.118;-1.690;2024-01-27T09:48:57;6.00;99.90
12504;DHT22;6316;48.118;-1.690;2024-01-27T09:51:25;6.10;99.90
12504;DHT22;6316;48.118;-1.690;2024-01-27T09:53:51;6.10;99.90
12504;DHT22;6316;48.118;-1.690;2024-01-27T09:56:17;6.10;99.90
12504;DHT22;6316;48.118;-1.690;2024-01-27T09:58:46;6.10;99.90
12504;DHT22;6316;48.118;-1.690;2024-01-27T10:01:16;6.20;99.90
12504;DHT22;6316;48.118;-1.690;2024-01-27T10:03:42;6.20;99.90
12504;DHT22;6316;48.118;-1.690;2024-01-27T10:06:09;6.20;99.90
12504;DHT22;6316;48.118;-1.690;2024-01-27T10:08:35;6.30;99.90
12504;DHT22;6316;48.118;-1.690;2024-01-27T10:11:08;6.30;99.90
12504;DHT22;6316;48.118;-1.690;2024-01-27T10:13:35;6.40;99.90
12504;DHT22;6316;48.118;-1.690;2024-01-27T10:16:08;6.40;99.90
12504;DHT22;6316;48.118;-1.690;2024-01-27T10:18:35;6.60;99.90
12504;DHT22;6316;48.118;-1.690;2024-01-27T10:21:18;6.60;99.90
12504;DHT22;6316;48.118;-1.690;2024-01-27T10:23:46;6.70;99.90
12504;DHT22;6316;48.118;-1.690;2024-01-27T10:26:11;6.70;99.90
12504;DHT22;6316;48.118;-1.690;2024-01-27T10:28:37;6.80;99.90
12504;DHT22;6316;48.118;-1.690;2024-01-27T10:31:12;6.80;99.90
12504;DHT22;6316;48.118;-1.690;2024-01-27T10:33:39;6.80;99.90
12504;DHT22;6316;48.118;-1.690;2024-01-27T10:36:05;6.90;99.90
12504;DHT22;6316;48.118;-1.690;2024-01-27T10:38:39;6.90;99.90
12504;DHT22;6316;48.118;-1.690;2024-01-27T10:41:09;7.00;99.90
12504;DHT22;6316;48.118;-1.690;2024-01-27T10:43:39;7.00;99.90
12504;DHT22;6316;48.118;-1.690;2024-01-27T10:46:06;7.10;99.90
12504;DHT22;6316;48.118;-1.690;2024-01-27T10:48:34;7.20;99.90
12504;DHT22;6316;48.118;-1.690;2024-01-27T10:51:09;7.30;99.90
12504;DHT22;6316;48.118;-1.690;2024-01-27T10:53:36;7.30;99.90
12504;DHT22;6316;48.118;-1.690;2024-01-27T10:56:04;7.40;99.90
12504;DHT22;6316;48.118;-1.690;2024-01-27T10:58:35;7.50;99.90
12504;DHT22;6316;48.118;-1.690;2024-01-27T11:01:09;7.50;99.90
12504;DHT22;6316;48.118;-1.690;2024-01-27T11:03:39;7.60;99.90
12504;DHT22;6316;48.118;-1.690;2024-01-27T11:06:06;7.70;99.90
12504;DHT22;6316;48.118;-1.690;2024-01-27T11:08:33;7.80;99.90
12504;DHT22;6316;48.118;-1.690;2024-01-27T11:11:00;7.90;99.90
12504;DHT22;6316;48.118;-1.690;2024-01-27T11:13:29;8.00;99.90
12504;DHT22;6316;48.118;-1.690;2024-01-27T11:15:56;8.10;99.90
12504;DHT22;6316;48.118;-1.690;2024-01-27T11:18:22;8.20;99.90
12504;DHT22;6316;48.118;-1.690;2024-01-27T11:20:47;8.30;99.90
12504;DHT22;6316;48.118;-1.690;2024-01-27T11:23:13;8.40;99.90
12504;DHT22;6316;48.118;-1.690;2024-01-27T11:25:40;8.50;99.90
12504;DHT22;6316;48.118;-1.690;2024-01-27T11:28:13;8.60;99.90
12504;DHT22;6316;48.118;-1.690;2024-01-27T11:30:44;8.70;99.90
12504;DHT22;6316;48.118;-1.690;2024-01-27T11:33:10;8.80;99.90
12504;DHT22;6316;48.118;-1.690;2024-01-27T11:35:36;8.90;99.90
12504;DHT22;6316;48.118;-1.690;2024-01-27T11:38:01;9.00;99.90
12504;DHT22;6316;48.118;-1.690;2024-01-27T11:40:27;9.00;99.90
12504;DHT22;6316;48.118;-1.690;2024-01-27T11:42:55;9.10;99.90
12504;DHT22;6316;48.118;-1.690;2024-01-27T11:45:22;9.20;99.90
12504;DHT22;6316;48.118;-1.690;2024-01-27T11:47:48;9.20;99.90
12504;DHT22;6316;48.118;-1.690;2024-01-27T11:50:14;9.40;99.90
12504;DHT22;6316;48.118;-1.690;2024-01-27T11:52:42;9.40;99.90
12504;DHT22;6316;48.118;-1.690;2024-01-27T11:55:08;9.50;99.90
12504;DHT22;6316;48.118;-1.690;2024-01-27T11:57:34;9.50;99.90
12504;DHT22;6316;48.118;-1.690;2024-01-27T11:59:59;9.50;99.90
12504;DHT22;6316;48.118;-1.690;2024-01-27T12:02:25;9.50;99.90
12504;DHT22;6316;48.118;-1.690;2024-01-27T12:04:51;9.50;99.90
12504;DHT22;6316;48.118;-1.690;2024-01-27T12:07:18;9.60;99.90
12504;DHT22;6316;48.118;-1.690;2024-01-27T12:09:44;9.60;99.90
12504;DHT22;6316;48.118;-1.690;2024-01-27T12:12:12;9.70;99.90
12504;DHT22;6316;48.118;-1.690;2024-01-27T12:14:49;9.70;99.90
12504;DHT22;6316;48.118;-1.690;2024-01-27T12:17:16;9.80;99.90
12504;DHT22;6316;48.118;-1.690;2024-01-27T12:22:29;9.80;99.90
12504;DHT22;6316;48.118;-1.690;2024-01-27T12:24:56;9.90;99.90
12504;DHT22;6316;48.118;-1.690;2024-01-27T12:27:33;10.00;99.90
12504;DHT22;6316;48.118;-1.690;2024-01-27T12:30:00;10.00;99.90
12504;DHT22;6316;48.118;-1.690;2024-01-27T12:32:26;10.00;99.90
12504;DHT22;6316;48.118;-1.690;2024-01-27T12:34:52;10.10;99.90
12504;DHT22;6316;48.118;-1.690;2024-01-27T12:37:18;10.10;99.90
12504;DHT22;6316;48.118;-1.690;2024-01-27T12:39:46;10.20;99.90
12504;DHT22;6316;48.118;-1.690;2024-01-27T12:42:12;10.20;99.90
12504;DHT22;6316;48.118;-1.690;2024-01-27T12:44:39;10.30;99.90
12504;DHT22;6316;48.118;-1.690;2024-01-27T12:47:05;10.30;99.90
12504;DHT22;6316;48.118;-1.690;2024-01-27T12:49:31;10.30;99.90
12504;DHT22;6316;48.118;-1.690;2024-01-27T12:51:57;10.30;99.90
12504;DHT22;6316;48.118;-1.690;2024-01-27T12:54:22;10.40;99.90
12504;DHT22;6316;48.118;-1.690;2024-01-27T12:56:48;10.50;99.90
12504;DHT22;6316;48.118;-1.690;2024-01-27T12:59:14;10.60;99.90
12504;DHT22;6316;48.118;-1.690;2024-01-27T13:01:41;10.60;99.90
12504;DHT22;6316;48.118;-1.690;2024-01-27T13:04:06;10.60;99.90
12504;DHT22;6316;48.118;-1.690;2024-01-27T13:06:32;10.60;99.90
12504;DHT22;6316;48.118;-1.690;2024-01-27T13:08:58;10.60;99.90
12504;DHT22;6316;48.118;-1.690;2024-01-27T13:11:23;10.60;99.90
12504;DHT22;6316;48.118;-1.690;2024-01-27T13:13:49;10.50;99.90
12504;DHT22;6316;48.118;-1.690;2024-01-27T13:16:15;10.50;99.90
12504;DHT22;6316;48.118;-1.690;2024-01-27T13:18:41;10.50;99.90
12504;DHT22;6316;48.118;-1.690;2024-01-27T13:21:07;10.50;99.90
12504;DHT22;6316;48.118;-1.690;2024-01-27T13:23:33;10.50;99.90
12504;DHT22;6316;48.118;-1.690;2024-01-27T13:25:59;10.50;99.90
12504;DHT22;6316;48.118;-1.690;2024-01-27T13:28:24;10.50;99.90
12504;DHT22;6316;48.118;-1.690;2024-01-27T13:30:50;10.50;99.90
12504;DHT22;6316;48.118;-1.690;2024-01-27T13:33:16;10.50;99.90
12504;DHT22;6316;48.118;-1.690;2024-01-27T13:35:42;10.60;99.90
12504;DHT22;6316;48.118;-1.690;2024-01-27T13:38:15;10.60;99.90
12504;DHT22;6316;48.118;-1.690;2024-01-27T13:40:41;10.60;99.90
12504;DHT22;6316;48.118;-1.690;2024-01-27T13:43:08;10.60;99.90
12504;DHT22;6316;48.118;-1.690;2024-01-27T13:45:34;10.60;99.90
12504;DHT22;6316;48.118;-1.690;2024-01-27T13:48:00;10.70;99.90
12504;DHT22;6316;48.118;-1.690;2024-01-27T13:50:26;10.70;99.90
12504;DHT22;6316;48.118;-1.690;2024-01-27T13:52:52;10.70;99.90
12504;DHT22;6316;48.118;-1.690;2024-01-27T13:55:18;10.80;99.90
12504;DHT22;6316;48.118;-1.690;2024-01-27T13:57:44;10.80;99.90
12504;DHT22;6316;48.118;-1.690;2024-01-27T14:00:10;10.70;99.90
12504;DHT22;6316;48.118;-1.690;2024-01-27T14:02:37;10.80;99.90
12504;DHT22;6316;48.118;-1.690;2024-01-27T14:05:03;10.80;99.90
12504;DHT22;6316;48.118;-1.690;2024-01-27T14:07:29;10.80;99.90
12504;DHT22;6316;48.118;-1.690;2024-01-27T14:09:55;10.80;99.90
12504;DHT22;6316;48.118;-1.690;2024-01-27T14:12:21;10.70;99.90
12504;DHT22;6316;48.118;-1.690;2024-01-27T14:14:49;10.70;99.90
12504;DHT22;6316;48.118;-1.690;2024-01-27T14:17:16;10.70;99.90
12504;DHT22;6316;48.118;-1.690;2024-01-27T14:19:42;10.70;99.90
12504;DHT22;6316;48.118;-1.690;2024-01-27T14:22:07;10.80;99.90
12504;DHT22;6316;48.118;-1.690;2024-01-27T14:24:33;10.80;99.90
12504;DHT22;6316;48.118;-1.690;2024-01-27T14:26:59;10.80;99.90
12504;DHT22;6316;48.118;-1.690;2024-01-27T14:29:25;10.80;99.90
12504;DHT22;6316;48.118;-1.690;2024-01-27T14:31:51;10.90;99.90
12504;DHT22;6316;48.118;-1.690;2024-01-27T14:34:17;10.90;99.90
12504;DHT22;6316;48.118;-1.690;2024-01-27T14:36:44;10.90;99.90
12504;DHT22;6316;48.118;-1.690;2024-01-27T14:39:09;11.00;99.90
12504;DHT22;6316;48.118;-1.690;2024-01-27T14:41:39;11.00;99.90
12504;DHT22;6316;48.118;-1.690;2024-01-27T14:44:04;11.00;99.90
12504;DHT22;6316;48.118;-1.690;2024-01-27T14:46:30;11.10;99.90
12504;DHT22;6316;48.118;-1.690;2024-01-27T14:48:56;11.10;99.90
12504;DHT22;6316;48.118;-1.690;2024-01-27T14:51:22;11.10;99.90
12504;DHT22;6316;48.118;-1.690;2024-01-27T14:53:47;11.10;99.90
12504;DHT22;6316;48.118;-1.690;2024-01-27T14:56:13;11.10;99.90
12504;DHT22;6316;48.118;-1.690;2024-01-27T14:58:40;11.10;99.90
12504;DHT22;6316;48.118;-1.690;2024-01-27T15:01:06;11.10;99.90
12504;DHT22;6316;48.118;-1.690;2024-01-27T15:03:32;11.10;99.90
12504;DHT22;6316;48.118;-1.690;2024-01-27T15:05:58;11.10;99.90
12504;DHT22;6316;48.118;-1.690;2024-01-27T15:08:24;11.10;99.90
12504;DHT22;6316;48.118;-1.690;2024-01-27T15:10:50;11.10;99.90
12504;DHT22;6316;48.118;-1.690;2024-01-27T15:13:15;11.00;99.90
12504;DHT22;6316;48.118;-1.690;2024-01-27T15:15:48;11.00;99.90
12504;DHT22;6316;48.118;-1.690;2024-01-27T15:18:14;11.00;99.90
12504;DHT22;6316;48.118;-1.690;2024-01-27T16:12:24;10.70;99.90
12504;DHT22;6316;48.118;-1.690;2024-01-27T16:14:50;10.40;99.90
12504;DHT22;6316;48.118;-1.690;2024-01-27T16:17:16;10.30;99.90
12504;DHT22;6316;48.118;-1.690;2024-01-27T16:19:42;10.30;99.90
12504;DHT22;6316;48.118;-1.690;2024-01-27T16:22:08;10.20;99.90
12504;DHT22;6316;48.118;-1.690;2024-01-27T16:24:34;10.10;99.90
12504;DHT22;6316;48.118;-1.690;2024-01-27T16:26:59;10.10;99.90
12504;DHT22;6316;48.118;-1.690;2024-01-27T16:29:25;10.00;99.90